sensor_id;sensor_type;location;lat;lon;timestamp;P1;durP1;ratioP1;P2;durP2;ratioP2
34144;SDS011;69555;53.014;8.886;2023-05-19T00:00:34;10.48;;;4.43;;
34144;SDS011;69555;53.014;8.886;2023-05-19T00:03:01;11.00;;;4.28;;
34144;SDS011;69555;53.014;8.886;2023-05-19T00:05:28;12.75;;;4.65;;
34144;SDS011;69555;53.014;8.886;2023-05-19T00:07:55;10.93;;;4.65;;
34144;SDS011;69555;53.014;8.886;2023-05-19T00:10:24;16.83;;;5.45;;
34144;SDS011;69555;53.014;8.886;2023-05-19T00:12:55;8.68;;;4.45;;
34144;SDS011;69555;53.014;8.886;2023-05-19T00:15:21;15.48;;;5.50;;
34144;SDS011;69555;53.014;8.886;2023-05-19T00:17:47;28.88;;;6.15;;
34144;SDS011;69555;53.014;8.886;2023-05-19T00:20:12;12.57;;;4.78;;
34144;SDS011;69555;53.014;8.886;2023-05-19T00:22:38;14.85;;;6.30;;
34144;SDS011;69555;53.014;8.886;2023-05-19T00:25:04;16.45;;;5.43;;
34144;SDS011;69555;53.014;8.886;2023-05-19T00:27:30;11.13;;;4.38;;
34144;SDS011;69555;53.014;8.886;2023-05-19T00:29:55;11.55;;;5.30;;
34144;SDS011;69555;53.014;8.886;2023-05-19T00:32:21;15.65;;;5.47;;
34144;SDS011;69555;53.014;8.886;2023-05-19T00:34:46;13.43;;;6.25;;
34144;SDS011;69555;53.014;8.886;2023-05-19T00:37:12;12.10;;;5.38;;
34144;SDS011;69555;53.014;8.886;2023-05-19T00:39:38;12.98;;;5.38;;
34144;SDS011;69555;53.014;8.886;2023-05-19T00:42:03;14.30;;;5.90;;
34144;SDS011;69555;53.014;8.886;2023-05-19T00:44:30;14.13;;;6.88;;
34144;SDS011;69555;53.014;8.886;2023-05-19T00:46:55;11.55;;;6.15;;
34144;SDS011;69555;53.014;8.886;2023-05-19T00:49:21;8.75;;;4.80;;
34144;SDS011;69555;53.014;8.886;2023-05-19T00:51:47;10.43;;;5.60;;
34144;SDS011;69555;53.014;8.886;2023-05-19T00:54:13;12.20;;;6.15;;
34144;SDS011;69555;53.014;8.886;2023-05-19T00:56:39;10.18;;;5.38;;
34144;SDS011;69555;53.014;8.886;2023-05-19T00:59:05;14.38;;;5.47;;
34144;SDS011;69555;53.014;8.886;2023-05-19T01:01:31;14.98;;;6.32;;
34144;SDS011;69555;53.014;8.886;2023-05-19T01:03:57;17.67;;;6.55;;
34144;SDS011;69555;53.014;8.886;2023-05-19T01:06:24;13.63;;;6.30;;
34144;SDS011;69555;53.014;8.886;2023-05-19T01:08:49;13.52;;;5.47;;
34144;SDS011;69555;53.014;8.886;2023-05-19T01:11:15;14.23;;;6.65;;
34144;SDS011;69555;53.014;8.886;2023-05-19T01:13:41;13.52;;;6.20;;
34144;SDS011;69555;53.014;8.886;2023-05-19T01:24:40;8.50;;;5.03;;
34144;SDS011;69555;53.014;8.886;2023-05-19T01:30:17;11.00;;;5.38;;
34144;SDS011;69555;53.014;8.886;2023-05-19T01:32:59;17.25;;;6.85;;
34144;SDS011;69555;53.014;8.886;2023-05-19T01:35:27;19.27;;;6.72;;
34144;SDS011;69555;53.014;8.886;2023-05-19T01:37:57;10.38;;;5.25;;
34144;SDS011;69555;53.014;8.886;2023-05-19T01:40:24;12.93;;;6.35;;
34144;SDS011;69555;53.014;8.886;2023-05-19T01:42:51;17.00;;;5.78;;
34144;SDS011;69555;53.014;8.886;2023-05-19T01:45:19;14.50;;;6.25;;
34144;SDS011;69555;53.014;8.886;2023-05-19T01:47:46;15.52;;;6.03;;
34144;SDS011;69555;53.014;8.886;2023-05-19T01:50:12;15.10;;;6.28;;
34144;SDS011;69555;53.014;8.886;2023-05-19T01:52:38;12.52;;;5.30;;
34144;SDS011;69555;53.014;8.886;2023-05-19T01:55:04;16.45;;;5.38;;
34144;SDS011;69555;53.014;8.886;2023-05-19T01:57:42;9.18;;;5.55;;
34144;SDS011;69555;53.014;8.886;2023-05-19T02:05:35;11.98;;;5.20;;
34144;SDS011;69555;53.014;8.886;2023-05-19T02:11:13;10.32;;;5.95;;
34144;SDS011;69555;53.014;8.886;2023-05-19T02:13:43;11.02;;;6.38;;
34144;SDS011;69555;53.014;8.886;2023-05-19T02:16:13;11.27;;;5.45;;
34144;SDS011;69555;53.014;8.886;2023-05-19T02:18:41;12.10;;;5.88;;
34144;SDS011;69555;53.014;8.886;2023-05-19T02:21:11;12.50;;;6.05;;
34144;SDS011;69555;53.014;8.886;2023-05-19T02:23:38;21.27;;;6.05;;
34144;SDS011;69555;53.014;8.886;2023-05-19T02:26:05;11.85;;;6.57;;
34144;SDS011;69555;53.014;8.886;2023-05-19T02:28:32;10.00;;;6.18;;
34144;SDS011;69555;53.014;8.886;2023-05-19T02:30:58;12.75;;;6.60;;
34144;SDS011;69555;53.014;8.886;2023-05-19T02:33:25;19.10;;;6.65;;
34144;SDS011;69555;53.014;8.886;2023-05-19T02:35:51;14.77;;;7.13;;
34144;SDS011;69555;53.014;8.886;2023-05-19T02:38:16;14.65;;;6.43;;
34144;SDS011;69555;53.014;8.886;2023-05-19T02:40:42;14.48;;;6.50;;
34144;SDS011;69555;53.014;8.886;2023-05-19T02:43:07;13.82;;;7.05;;
34144;SDS011;69555;53.014;8.886;2023-05-19T02:45:33;13.25;;;6.82;;
34144;SDS011;69555;53.014;8.886;2023-05-19T02:47:58;17.50;;;7.10;;
34144;SDS011;69555;53.014;8.886;2023-05-19T02:50:23;13.05;;;6.53;;
34144;SDS011;69555;53.014;8.886;2023-05-19T02:52:49;15.27;;;7.43;;
34144;SDS011;69555;53.014;8.886;2023-05-19T02:55:14;15.95;;;7.15;;
34144;SDS011;69555;53.014;8.886;2023-05-19T02:57:41;33.70;;;8.15;;
34144;SDS011;69555;53.014;8.886;2023-05-19T03:00:07;17.77;;;7.50;;
34144;SDS011;69555;53.014;8.886;2023-05-19T03:02:33;14.75;;;6.72;;
34144;SDS011;69555;53.014;8.886;2023-05-19T03:04:59;17.00;;;7.78;;
34144;SDS011;69555;53.014;8.886;2023-05-19T03:07:27;11.90;;;6.95;;
34144;SDS011;69555;53.014;8.886;2023-05-19T03:09:52;12.98;;;6.90;;
34144;SDS011;69555;53.014;8.886;2023-05-19T03:12:18;12.73;;;8.07;;
34144;SDS011;69555;53.014;8.886;2023-05-19T03:14:43;14.10;;;8.43;;
34144;SDS011;69555;53.014;8.886;2023-05-19T03:17:08;16.30;;;7.50;;
34144;SDS011;69555;53.014;8.886;2023-05-19T03:19:34;14.40;;;7.88;;
34144;SDS011;69555;53.014;8.886;2023-05-19T03:22:00;18.15;;;8.80;;
34144;SDS011;69555;53.014;8.886;2023-05-19T03:24:26;14.88;;;8.35;;
34144;SDS011;69555;53.014;8.886;2023-05-19T03:26:51;20.38;;;8.90;;
34144;SDS011;69555;53.014;8.886;2023-05-19T03:29:16;13.75;;;7.55;;
34144;SDS011;69555;53.014;8.886;2023-05-19T03:31:42;15.77;;;6.40;;
34144;SDS011;69555;53.014;8.886;2023-05-19T03:34:07;12.63;;;7.25;;
34144;SDS011;69555;53.014;8.886;2023-05-19T03:36:33;15.35;;;7.35;;
34144;SDS011;69555;53.014;8.886;2023-05-19T03:39:03;15.00;;;7.75;;
34144;SDS011;69555;53.014;8.886;2023-05-19T03:41:31;18.15;;;7.85;;
34144;SDS011;69555;53.014;8.886;2023-05-19T03:43:57;23.48;;;8.00;;
34144;SDS011;69555;53.014;8.886;2023-05-19T03:46:22;17.13;;;8.10;;
34144;SDS011;69555;53.014;8.886;2023-05-19T03:48:48;15.02;;;7.75;;
34144;SDS011;69555;53.014;8.886;2023-05-19T03:51:13;13.98;;;6.63;;
34144;SDS011;69555;53.014;8.886;2023-05-19T03:53:39;17.08;;;7.63;;
34144;SDS011;69555;53.014;8.886;2023-05-19T03:56:05;12.23;;;6.63;;
34144;SDS011;69555;53.014;8.886;2023-05-19T03:58:31;15.88;;;7.00;;
34144;SDS011;69555;53.014;8.886;2023-05-19T04:00:57;12.50;;;7.57;;
34144;SDS011;69555;53.014;8.886;2023-05-19T04:03:22;11.38;;;6.07;;
34144;SDS011;69555;53.014;8.886;2023-05-19T04:05:49;19.88;;;7.70;;
34144;SDS011;69555;53.014;8.886;2023-05-19T04:08:15;19.77;;;7.65;;
34144;SDS011;69555;53.014;8.886;2023-05-19T04:10:41;13.52;;;7.30;;
34144;SDS011;69555;53.014;8.886;2023-05-19T04:13:06;14.32;;;6.55;;
34144;SDS011;69555;53.014;8.886;2023-05-19T04:15:31;16.33;;;6.90;;
34144;SDS011;69555;53.014;8.886;2023-05-19T04:17:57;10.77;;;6.40;;
34144;SDS011;69555;53.014;8.886;2023-05-19T04:20:22;8.98;;;6.32;;
34144;SDS011;69555;53.014;8.886;2023-05-19T04:22:48;12.98;;;6.85;;
34144;SDS011;69555;53.014;8.886;2023-05-19T04:25:13;12.05;;;6.38;;
34144;SDS011;69555;53.014;8.886;2023-05-19T04:27:39;16.45;;;6.30;;
34144;SDS011;69555;53.014;8.886;2023-05-19T04:30:05;18.92;;;6.97;;
34144;SDS011;69555;53.014;8.886;2023-05-19T04:32:30;15.98;;;7.65;;
34144;SDS011;69555;53.014;8.886;2023-05-19T04:34:56;10.90;;;7.00;;
34144;SDS011;69555;53.014;8.886;2023-05-19T04:37:22;15.40;;;6.38;;
34144;SDS011;69555;53.014;8.886;2023-05-19T04:39:51;13.18;;;6.68;;
34144;SDS011;69555;53.014;8.886;2023-05-19T04:42:17;14.95;;;6.75;;
34144;SDS011;69555;53.014;8.886;2023-05-19T04:44:45;13.00;;;6.75;;
34144;SDS011;69555;53.014;8.886;2023-05-19T04:47:13;20.88;;;7.28;;
34144;SDS011;69555;53.014;8.886;2023-05-19T04:49:38;17.70;;;7.43;;
34144;SDS011;69555;53.014;8.886;2023-05-19T04:52:05;17.30;;;6.40;;
34144;SDS011;69555;53.014;8.886;2023-05-19T04:54:31;16.75;;;8.38;;
34144;SDS011;69555;53.014;8.886;2023-05-19T04:56:58;12.98;;;6.78;;
34144;SDS011;69555;53.014;8.886;2023-05-19T04:59:23;16.00;;;6.30;;
34144;SDS011;69555;53.014;8.886;2023-05-19T05:01:49;15.85;;;6.03;;
34144;SDS011;69555;53.014;8.886;2023-05-19T05:04:14;13.85;;;6.97;;
34144;SDS011;69555;53.014;8.886;2023-05-19T05:06:40;14.20;;;5.75;;
34144;SDS011;69555;53.014;8.886;2023-05-19T05:09:06;13.57;;;6.07;;
34144;SDS011;69555;53.014;8.886;2023-05-19T05:11:31;13.38;;;6.50;;
34144;SDS011;69555;53.014;8.886;2023-05-19T05:13:57;12.52;;;6.15;;
34144;SDS011;69555;53.014;8.886;2023-05-19T05:16:23;12.68;;;5.85;;
34144;SDS011;69555;53.014;8.886;2023-05-19T05:18:49;15.90;;;6.40;;
34144;SDS011;69555;53.014;8.886;2023-05-19T05:21:14;16.42;;;5.43;;
34144;SDS011;69555;53.014;8.886;2023-05-19T05:23:40;14.90;;;7.20;;
34144;SDS011;69555;53.014;8.886;2023-05-19T05:26:08;13.77;;;6.15;;
34144;SDS011;69555;53.014;8.886;2023-05-19T05:28:39;15.57;;;6.13;;
34144;SDS011;69555;53.014;8.886;2023-05-19T05:31:05;11.75;;;5.18;;
34144;SDS011;69555;53.014;8.886;2023-05-19T05:33:30;13.52;;;5.95;;
34144;SDS011;69555;53.014;8.886;2023-05-19T05:35:56;10.25;;;4.85;;
34144;SDS011;69555;53.014;8.886;2023-05-19T05:38:21;8.15;;;4.88;;
34144;SDS011;69555;53.014;8.886;2023-05-19T05:40:47;18.38;;;4.75;;
34144;SDS011;69555;53.014;8.886;2023-05-19T05:43:12;17.30;;;4.55;;
34144;SDS011;69555;53.014;8.886;2023-05-19T05:45:37;9.73;;;4.07;;
34144;SDS011;69555;53.014;8.886;2023-05-19T05:48:03;13.55;;;5.10;;
34144;SDS011;69555;53.014;8.886;2023-05-19T05:50:29;7.20;;;4.00;;
34144;SDS011;69555;53.014;8.886;2023-05-19T05:52:54;11.90;;;4.68;;
34144;SDS011;69555;53.014;8.886;2023-05-19T05:55:22;7.82;;;4.60;;
34144;SDS011;69555;53.014;8.886;2023-05-19T05:57:48;13.57;;;3.70;;
34144;SDS011;69555;53.014;8.886;2023-05-19T06:00:14;9.38;;;4.05;;
34144;SDS011;69555;53.014;8.886;2023-05-19T06:02:44;9.38;;;3.67;;
34144;SDS011;69555;53.014;8.886;2023-05-19T06:05:11;7.20;;;3.90;;
34144;SDS011;69555;53.014;8.886;2023-05-19T06:07:37;6.80;;;3.70;;
34144;SDS011;69555;53.014;8.886;2023-05-19T06:10:03;10.38;;;3.97;;
34144;SDS011;69555;53.014;8.886;2023-05-19T06:12:29;9.65;;;4.88;;
34144;SDS011;69555;53.014;8.886;2023-05-19T06:14:54;9.98;;;4.20;;
34144;SDS011;69555;53.014;8.886;2023-05-19T06:17:20;11.02;;;3.60;;
34144;SDS011;69555;53.014;8.886;2023-05-19T06:19:45;8.10;;;3.15;;
34144;SDS011;69555;53.014;8.886;2023-05-19T06:22:10;7.20;;;4.03;;
34144;SDS011;69555;53.014;8.886;2023-05-19T06:24:36;9.10;;;3.90;;
34144;SDS011;69555;53.014;8.886;2023-05-19T06:27:01;7.50;;;3.47;;
34144;SDS011;69555;53.014;8.886;2023-05-19T06:29:27;10.57;;;3.72;;
34144;SDS011;69555;53.014;8.886;2023-05-19T06:31:53;11.55;;;4.45;;
34144;SDS011;69555;53.014;8.886;2023-05-19T06:34:18;8.30;;;3.83;;
34144;SDS011;69555;53.014;8.886;2023-05-19T06:36:45;9.30;;;4.05;;
34144;SDS011;69555;53.014;8.886;2023-05-19T06:39:10;7.63;;;3.85;;
34144;SDS011;69555;53.014;8.886;2023-05-19T06:41:35;14.38;;;3.95;;
34144;SDS011;69555;53.014;8.886;2023-05-19T06:44:02;8.93;;;4.30;;
34144;SDS011;69555;53.014;8.886;2023-05-19T06:46:28;9.68;;;4.28;;
34144;SDS011;69555;53.014;8.886;2023-05-19T06:48:53;12.50;;;4.00;;
34144;SDS011;69555;53.014;8.886;2023-05-19T06:51:19;11.20;;;3.90;;
34144;SDS011;69555;53.014;8.886;2023-05-19T06:53:46;6.82;;;3.88;;
34144;SDS011;69555;53.014;8.886;2023-05-19T06:56:12;9.27;;;3.55;;
34144;SDS011;69555;53.014;8.886;2023-05-19T06:58:39;9.88;;;4.38;;
34144;SDS011;69555;53.014;8.886;2023-05-19T07:01:05;12.30;;;4.30;;
34144;SDS011;69555;53.014;8.886;2023-05-19T07:03:30;11.15;;;4.20;;
34144;SDS011;69555;53.014;8.886;2023-05-19T07:05:55;6.60;;;3.22;;
34144;SDS011;69555;53.014;8.886;2023-05-19T07:08:21;13.15;;;4.35;;
34144;SDS011;69555;53.014;8.886;2023-05-19T07:10:46;11.15;;;3.30;;
34144;SDS011;69555;53.014;8.886;2023-05-19T07:13:12;7.03;;;3.78;;
34144;SDS011;69555;53.014;8.886;2023-05-19T07:15:37;11.23;;;3.42;;
34144;SDS011;69555;53.014;8.886;2023-05-19T07:18:02;5.88;;;3.22;;
34144;SDS011;69555;53.014;8.886;2023-05-19T07:20:28;8.50;;;3.88;;
34144;SDS011;69555;53.014;8.886;2023-05-19T07:22:53;9.82;;;3.38;;
34144;SDS011;69555;53.014;8.886;2023-05-19T07:25:19;8.40;;;3.63;;
34144;SDS011;69555;53.014;8.886;2023-05-19T07:27:44;10.45;;;3.80;;
34144;SDS011;69555;53.014;8.886;2023-05-19T07:30:10;6.28;;;3.05;;
34144;SDS011;69555;53.014;8.886;2023-05-19T07:32:36;8.57;;;3.90;;
34144;SDS011;69555;53.014;8.886;2023-05-19T07:35:01;6.72;;;3.17;;
34144;SDS011;69555;53.014;8.886;2023-05-19T07:37:27;11.93;;;2.97;;
34144;SDS011;69555;53.014;8.886;2023-05-19T07:39:52;8.27;;;3.00;;
34144;SDS011;69555;53.014;8.886;2023-05-19T07:42:17;6.78;;;3.05;;
34144;SDS011;69555;53.014;8.886;2023-05-19T07:44:43;7.85;;;3.10;;
34144;SDS011;69555;53.014;8.886;2023-05-19T07:47:08;11.70;;;3.63;;
34144;SDS011;69555;53.014;8.886;2023-05-19T07:49:34;9.35;;;3.47;;
34144;SDS011;69555;53.014;8.886;2023-05-19T07:51:59;10.02;;;4.00;;
34144;SDS011;69555;53.014;8.886;2023-05-19T07:54:25;7.65;;;3.38;;
34144;SDS011;69555;53.014;8.886;2023-05-19T07:56:50;9.43;;;4.03;;
34144;SDS011;69555;53.014;8.886;2023-05-19T07:59:16;12.15;;;3.90;;
34144;SDS011;69555;53.014;8.886;2023-05-19T08:01:41;8.02;;;3.63;;
34144;SDS011;69555;53.014;8.886;2023-05-19T08:04:07;9.82;;;3.63;;
34144;SDS011;69555;53.014;8.886;2023-05-19T08:06:32;7.97;;;2.90;;
34144;SDS011;69555;53.014;8.886;2023-05-19T08:08:59;7.60;;;3.85;;
34144;SDS011;69555;53.014;8.886;2023-05-19T08:11:24;13.52;;;3.22;;
34144;SDS011;69555;53.014;8.886;2023-05-19T08:13:50;11.27;;;3.50;;
34144;SDS011;69555;53.014;8.886;2023-05-19T08:16:16;9.38;;;3.33;;
34144;SDS011;69555;53.014;8.886;2023-05-19T08:18:42;9.20;;;3.45;;
34144;SDS011;69555;53.014;8.886;2023-05-19T08:21:07;10.75;;;3.90;;
34144;SDS011;69555;53.014;8.886;2023-05-19T08:23:33;12.10;;;3.97;;
34144;SDS011;69555;53.014;8.886;2023-05-19T08:25:58;11.27;;;3.03;;
34144;SDS011;69555;53.014;8.886;2023-05-19T08:28:24;11.02;;;3.00;;
34144;SDS011;69555;53.014;8.886;2023-05-19T08:30:50;7.03;;;2.95;;
34144;SDS011;69555;53.014;8.886;2023-05-19T08:33:16;6.47;;;2.95;;
34144;SDS011;69555;53.014;8.886;2023-05-19T08:35:42;7.40;;;3.17;;
34144;SDS011;69555;53.014;8.886;2023-05-19T08:38:07;9.40;;;3.20;;
34144;SDS011;69555;53.014;8.886;2023-05-19T08:40:32;8.32;;;3.30;;
34144;SDS011;69555;53.014;8.886;2023-05-19T08:43:01;5.78;;;2.78;;
34144;SDS011;69555;53.014;8.886;2023-05-19T08:45:27;12.85;;;3.92;;
34144;SDS011;69555;53.014;8.886;2023-05-19T08:47:53;14.00;;;2.78;;
34144;SDS011;69555;53.014;8.886;2023-05-19T08:50:23;12.40;;;3.15;;
34144;SDS011;69555;53.014;8.886;2023-05-19T08:53:00;10.70;;;3.45;;
34144;SDS011;69555;53.014;8.886;2023-05-19T08:55:50;7.88;;;2.60;;
34144;SDS011;69555;53.014;8.886;2023-05-19T08:58:34;11.52;;;3.33;;
34144;SDS011;69555;53.014;8.886;2023-05-19T09:01:02;10.70;;;4.15;;
34144;SDS011;69555;53.014;8.886;2023-05-19T09:03:28;9.23;;;2.63;;
34144;SDS011;69555;53.014;8.886;2023-05-19T09:05:56;7.78;;;2.58;;
34144;SDS011;69555;53.014;8.886;2023-05-19T09:08:22;8.77;;;2.72;;
34144;SDS011;69555;53.014;8.886;2023-05-19T09:10:47;8.18;;;2.47;;
34144;SDS011;69555;53.014;8.886;2023-05-19T09:13:13;7.55;;;2.42;;
34144;SDS011;69555;53.014;8.886;2023-05-19T09:15:38;11.57;;;2.83;;
34144;SDS011;69555;53.014;8.886;2023-05-19T09:18:09;6.03;;;1.98;;
34144;SDS011;69555;53.014;8.886;2023-05-19T09:20:36;7.25;;;2.40;;
34144;SDS011;69555;53.014;8.886;2023-05-19T09:23:03;9.50;;;2.60;;
34144;SDS011;69555;53.014;8.886;2023-05-19T09:25:29;10.52;;;2.78;;
34144;SDS011;69555;53.014;8.886;2023-05-19T09:27:55;7.40;;;2.00;;
34144;SDS011;69555;53.014;8.886;2023-05-19T09:30:22;8.18;;;2.70;;
34144;SDS011;69555;53.014;8.886;2023-05-19T09:32:47;6.28;;;1.95;;
34144;SDS011;69555;53.014;8.886;2023-05-19T09:35:15;5.93;;;1.75;;
34144;SDS011;69555;53.014;8.886;2023-05-19T09:37:41;7.65;;;2.25;;
34144;SDS011;69555;53.014;8.886;2023-05-19T09:40:07;6.45;;;2.25;;
34144;SDS011;69555;53.014;8.886;2023-05-19T09:42:37;12.13;;;2.58;;
34144;SDS011;69555;53.014;8.886;2023-05-19T09:45:04;7.63;;;2.13;;
34144;SDS011;69555;53.014;8.886;2023-05-19T09:50:06;3.92;;;1.88;;
34144;SDS011;69555;53.014;8.886;2023-05-19T09:55:02;6.53;;;1.83;;
34144;SDS011;69555;53.014;8.886;2023-05-19T09:57:33;5.50;;;2.28;;
34144;SDS011;69555;53.014;8.886;2023-05-19T10:00:05;8.82;;;1.80;;
34144;SDS011;69555;53.014;8.886;2023-05-19T10:02:36;4.15;;;1.70;;
34144;SDS011;69555;53.014;8.886;2023-05-19T10:05:10;7.32;;;1.70;;
34144;SDS011;69555;53.014;8.886;2023-05-19T10:07:40;6.88;;;1.70;;
34144;SDS011;69555;53.014;8.886;2023-05-19T10:10:08;8.98;;;2.67;;
34144;SDS011;69555;53.014;8.886;2023-05-19T10:12:36;37.88;;;4.78;;
34144;SDS011;69555;53.014;8.886;2023-05-19T10:15:03;10.73;;;2.17;;
34144;SDS011;69555;53.014;8.886;2023-05-19T10:17:30;8.50;;;2.20;;
34144;SDS011;69555;53.014;8.886;2023-05-19T10:19:56;7.18;;;2.08;;
34144;SDS011;69555;53.014;8.886;2023-05-19T10:22:23;14.98;;;2.63;;
34144;SDS011;69555;53.014;8.886;2023-05-19T10:24:48;8.75;;;1.95;;
34144;SDS011;69555;53.014;8.886;2023-05-19T10:27:14;4.07;;;1.70;;
34144;SDS011;69555;53.014;8.886;2023-05-19T10:29:42;7.38;;;1.65;;
34144;SDS011;69555;53.014;8.886;2023-05-19T10:32:13;3.63;;;1.60;;
34144;SDS011;69555;53.014;8.886;2023-05-19T10:34:52;6.80;;;1.75;;
34144;SDS011;69555;53.014;8.886;2023-05-19T10:43:46;8.60;;;1.40;;
34144;SDS011;69555;53.014;8.886;2023-05-19T10:46:21;5.82;;;1.65;;
34144;SDS011;69555;53.014;8.886;2023-05-19T10:51:13;7.22;;;2.10;;
34144;SDS011;69555;53.014;8.886;2023-05-19T10:53:39;6.47;;;2.22;;
34144;SDS011;69555;53.014;8.886;2023-05-19T10:56:10;6.90;;;1.95;;
34144;SDS011;69555;53.014;8.886;2023-05-19T11:01:08;6.18;;;1.65;;
34144;SDS011;69555;53.014;8.886;2023-05-19T11:06:33;7.55;;;1.55;;
34144;SDS011;69555;53.014;8.886;2023-05-19T11:11:25;6.55;;;1.90;;
34144;SDS011;69555;53.014;8.886;2023-05-19T11:13:54;3.67;;;1.50;;
34144;SDS011;69555;53.014;8.886;2023-05-19T11:16:38;7.35;;;2.17;;
34144;SDS011;69555;53.014;8.886;2023-05-19T11:19:07;3.42;;;1.45;;
34144;SDS011;69555;53.014;8.886;2023-05-19T11:21:51;10.00;;;1.70;;
34144;SDS011;69555;53.014;8.886;2023-05-19T11:24:38;3.78;;;1.95;;
34144;SDS011;69555;53.014;8.886;2023-05-19T11:29:58;8.55;;;2.13;;
34144;SDS011;69555;53.014;8.886;2023-05-19T11:32:38;11.75;;;1.90;;
34144;SDS011;69555;53.014;8.886;2023-05-19T11:35:06;3.20;;;1.45;;
34144;SDS011;69555;53.014;8.886;2023-05-19T11:37:32;4.70;;;1.23;;
34144;SDS011;69555;53.014;8.886;2023-05-19T11:40:02;5.75;;;1.48;;
34144;SDS011;69555;53.014;8.886;2023-05-19T11:42:30;4.68;;;1.48;;
34144;SDS011;69555;53.014;8.886;2023-05-19T11:44:56;6.95;;;1.63;;
34144;SDS011;69555;53.014;8.886;2023-05-19T11:47:21;5.60;;;1.40;;
34144;SDS011;69555;53.014;8.886;2023-05-19T11:49:47;6.55;;;2.00;;
34144;SDS011;69555;53.014;8.886;2023-05-19T11:52:13;6.07;;;1.85;;
34144;SDS011;69555;53.014;8.886;2023-05-19T11:54:38;6.55;;;1.65;;
34144;SDS011;69555;53.014;8.886;2023-05-19T11:57:06;6.95;;;1.85;;
34144;SDS011;69555;53.014;8.886;2023-05-19T11:59:35;5.85;;;1.38;;
34144;SDS011;69555;53.014;8.886;2023-05-19T12:02:17;2.85;;;1.40;;
34144;SDS011;69555;53.014;8.886;2023-05-19T12:04:44;4.03;;;1.63;;
34144;SDS011;69555;53.014;8.886;2023-05-19T12:07:11;5.22;;;1.25;;
34144;SDS011;69555;53.014;8.886;2023-05-19T12:09:37;6.38;;;1.83;;
34144;SDS011;69555;53.014;8.886;2023-05-19T12:12:03;10.85;;;2.63;;
34144;SDS011;69555;53.014;8.886;2023-05-19T12:14:29;6.10;;;1.70;;
34144;SDS011;69555;53.014;8.886;2023-05-19T12:16:55;4.97;;;1.58;;
34144;SDS011;69555;53.014;8.886;2023-05-19T12:19:22;5.78;;;1.45;;
34144;SDS011;69555;53.014;8.886;2023-05-19T12:21:49;7.55;;;2.10;;
34144;SDS011;69555;53.014;8.886;2023-05-19T12:24:15;4.60;;;1.45;;
34144;SDS011;69555;53.014;8.886;2023-05-19T12:26:41;10.07;;;1.65;;
34144;SDS011;69555;53.014;8.886;2023-05-19T12:29:07;4.47;;;1.58;;
34144;SDS011;69555;53.014;8.886;2023-05-19T12:31:35;6.43;;;2.15;;
34144;SDS011;69555;53.014;8.886;2023-05-19T12:34:01;6.95;;;2.40;;
34144;SDS011;69555;53.014;8.886;2023-05-19T12:36:27;2.22;;;1.10;;
34144;SDS011;69555;53.014;8.886;2023-05-19T12:38:56;5.40;;;1.38;;
34144;SDS011;69555;53.014;8.886;2023-05-19T12:41:22;6.13;;;2.13;;
34144;SDS011;69555;53.014;8.886;2023-05-19T12:43:49;3.38;;;1.23;;
34144;SDS011;69555;53.014;8.886;2023-05-19T12:46:17;6.18;;;1.55;;
34144;SDS011;69555;53.014;8.886;2023-05-19T12:48:42;3.75;;;1.40;;
34144;SDS011;69555;53.014;8.886;2023-05-19T12:51:09;2.92;;;1.63;;
34144;SDS011;69555;53.014;8.886;2023-05-19T12:53:39;2.75;;;1.23;;
34144;SDS011;69555;53.014;8.886;2023-05-19T12:56:12;5.82;;;1.10;;
34144;SDS011;69555;53.014;8.886;2023-05-19T12:58:39;4.30;;;1.33;;
34144;SDS011;69555;53.014;8.886;2023-05-19T13:01:05;2.53;;;1.35;;
34144;SDS011;69555;53.014;8.886;2023-05-19T13:03:33;4.00;;;1.60;;
34144;SDS011;69555;53.014;8.886;2023-05-19T13:06:04;7.90;;;1.15;;
34144;SDS011;69555;53.014;8.886;2023-05-19T13:08:29;7.32;;;2.67;;
34144;SDS011;69555;53.014;8.886;2023-05-19T13:10:55;5.03;;;1.45;;
34144;SDS011;69555;53.014;8.886;2023-05-19T13:13:20;8.85;;;1.63;;
34144;SDS011;69555;53.014;8.886;2023-05-19T13:15:45;24.73;;;2.25;;
34144;SDS011;69555;53.014;8.886;2023-05-19T13:18:14;6.47;;;1.63;;
34144;SDS011;69555;53.014;8.886;2023-05-19T13:20:41;6.82;;;1.38;;
34144;SDS011;69555;53.014;8.886;2023-05-19T13:23:08;4.82;;;1.70;;
34144;SDS011;69555;53.014;8.886;2023-05-19T13:25:34;6.68;;;1.55;;
34144;SDS011;69555;53.014;8.886;2023-05-19T13:28:03;3.03;;;1.15;;
34144;SDS011;69555;53.014;8.886;2023-05-19T13:30:32;5.30;;;1.75;;
34144;SDS011;69555;53.014;8.886;2023-05-19T13:32:59;6.63;;;2.20;;
34144;SDS011;69555;53.014;8.886;2023-05-19T13:35:25;5.72;;;1.75;;
34144;SDS011;69555;53.014;8.886;2023-05-19T13:37:50;11.82;;;1.85;;
34144;SDS011;69555;53.014;8.886;2023-05-19T13:40:16;10.10;;;2.00;;
34144;SDS011;69555;53.014;8.886;2023-05-19T13:42:41;13.23;;;2.63;;
34144;SDS011;69555;53.014;8.886;2023-05-19T13:45:07;4.20;;;1.52;;
34144;SDS011;69555;53.014;8.886;2023-05-19T13:47:33;11.88;;;1.48;;
34144;SDS011;69555;53.014;8.886;2023-05-19T13:50:01;7.10;;;1.80;;
34144;SDS011;69555;53.014;8.886;2023-05-19T13:52:27;6.75;;;1.58;;
34144;SDS011;69555;53.014;8.886;2023-05-19T13:54:52;6.57;;;1.27;;
34144;SDS011;69555;53.014;8.886;2023-05-19T13:57:18;5.65;;;1.45;;
34144;SDS011;69555;53.014;8.886;2023-05-19T13:59:44;48.63;;;3.25;;
34144;SDS011;69555;53.014;8.886;2023-05-19T14:02:09;10.40;;;1.98;;
34144;SDS011;69555;53.014;8.886;2023-05-19T14:04:38;11.23;;;1.55;;
34144;SDS011;69555;53.014;8.886;2023-05-19T14:07:04;7.55;;;1.45;;
34144;SDS011;69555;53.014;8.886;2023-05-19T14:09:30;10.57;;;1.92;;
34144;SDS011;69555;53.014;8.886;2023-05-19T14:11:55;6.38;;;1.60;;
34144;SDS011;69555;53.014;8.886;2023-05-19T14:14:21;4.82;;;1.40;;
34144;SDS011;69555;53.014;8.886;2023-05-19T14:16:46;10.38;;;1.77;;
34144;SDS011;69555;53.014;8.886;2023-05-19T14:19:12;6.38;;;1.77;;
34144;SDS011;69555;53.014;8.886;2023-05-19T14:21:38;6.25;;;1.40;;
34144;SDS011;69555;53.014;8.886;2023-05-19T14:24:03;3.85;;;1.27;;
34144;SDS011;69555;53.014;8.886;2023-05-19T14:26:29;3.00;;;1.52;;
34144;SDS011;69555;53.014;8.886;2023-05-19T14:28:55;6.68;;;1.48;;
34144;SDS011;69555;53.014;8.886;2023-05-19T14:31:21;6.35;;;1.48;;
34144;SDS011;69555;53.014;8.886;2023-05-19T14:33:46;6.78;;;2.42;;
34144;SDS011;69555;53.014;8.886;2023-05-19T14:36:12;4.65;;;1.40;;
34144;SDS011;69555;53.014;8.886;2023-05-19T14:38:37;9.85;;;1.77;;
34144;SDS011;69555;53.014;8.886;2023-05-19T14:41:03;12.60;;;2.13;;
34144;SDS011;69555;53.014;8.886;2023-05-19T14:43:28;19.70;;;1.98;;
34144;SDS011;69555;53.014;8.886;2023-05-19T14:45:53;4.95;;;1.52;;
34144;SDS011;69555;53.014;8.886;2023-05-19T14:48:20;5.50;;;1.77;;
34144;SDS011;69555;53.014;8.886;2023-05-19T14:50:45;7.00;;;1.80;;
34144;SDS011;69555;53.014;8.886;2023-05-19T14:53:12;7.10;;;1.95;;
34144;SDS011;69555;53.014;8.886;2023-05-19T14:55:37;4.88;;;1.27;;
34144;SDS011;69555;53.014;8.886;2023-05-19T14:58:03;2.10;;;1.35;;
34144;SDS011;69555;53.014;8.886;2023-05-19T15:00:28;8.73;;;1.63;;
34144;SDS011;69555;53.014;8.886;2023-05-19T15:02:54;7.95;;;1.90;;
34144;SDS011;69555;53.014;8.886;2023-05-19T15:05:20;12.38;;;1.65;;
34144;SDS011;69555;53.014;8.886;2023-05-19T15:07:47;5.18;;;1.65;;
34144;SDS011;69555;53.014;8.886;2023-05-19T15:10:13;5.68;;;1.75;;
34144;SDS011;69555;53.014;8.886;2023-05-19T15:12:40;4.63;;;1.42;;
34144;SDS011;69555;53.014;8.886;2023-05-19T15:15:05;10.88;;;2.08;;
34144;SDS011;69555;53.014;8.886;2023-05-19T15:17:31;5.55;;;1.40;;
34144;SDS011;69555;53.014;8.886;2023-05-19T15:19:57;4.70;;;1.67;;
34144;SDS011;69555;53.014;8.886;2023-05-19T15:22:22;4.53;;;1.80;;